sensor_id;sensor_type;location;lat;lon;timestamp;temperature;humidity
22035;DHT22;11181;51.002;4.356;2022-08-01T00:01:57;22.40;99.90
22035;DHT22;11181;51.002;4.356;2022-08-01T00:04:24;22.40;99.90
22035;DHT22;11181;51.002;4.356;2022-08-01T00:06:51;22.30;99.90
22035;DHT22;11181;51.002;4.356;2022-08-01T00:09:19;22.30;99.90
22035;DHT22;11181;51.002;4.356;2022-08-01T00:11:46;22.20;99.90
22035;DHT22;11181;51.002;4.356;2022-08-01T00:14:13;22.20;99.90
22035;DHT22;11181;51.002;4.356;2022-08-01T00:16:40;22.30;99.90
22035;DHT22;11181;51.002;4.356;2022-08-01T00:19:07;22.30;99.90
22035;DHT22;11181;51.002;4.356;2022-08-01T00:21:34;22.30;99.90
22035;DHT22;11181;51.002;4.356;2022-08-01T00:24:01;22.30;99.90
22035;DHT22;11181;51.002;4.356;2022-08-01T00:26:29;22.30;99.90
22035;DHT22;11181;51.002;4.356;2022-08-01T00:28:56;22.30;99.90
22035;DHT22;11181;51.002;4.356;2022-08-01T00:31:22;22.40;99.90
22035;DHT22;11181;51.002;4.356;2022-08-01T00:33:49;22.40;99.90
22035;DHT22;11181;51.002;4.356;2022-08-01T00:36:16;22.50;99.90
22035;DHT22;11181;51.002;4.356;2022-08-01T00:38:43;22.50;99.90
22035;DHT22;11181;51.002;4.356;2022-08-01T00:41:10;22.60;99.90
22035;DHT22;11181;51.002;4.356;2022-08-01T00:43:38;22.60;99.90
22035;DHT22;11181;51.002;4.356;2022-08-01T00:46:05;22.60;99.90
22035;DHT22;11181;51.002;4.356;2022-08-01T00:48:32;22.70;99.90
22035;DHT22;11181;51.002;4.356;2022-08-01T00:50:59;22.60;99.90
22035;DHT22;11181;51.002;4.356;2022-08-01T00:53:26;22.60;99.90
22035;DHT22;11181;51.002;4.356;2022-08-01T00:55:53;22.60;99.90
22035;DHT22;11181;51.002;4.356;2022-08-01T00:58:20;22.50;99.90
22035;DHT22;11181;51.002;4.356;2022-08-01T01:00:49;22.50;99.90
22035;DHT22;11181;51.002;4.356;2022-08-01T01:03:16;22.40;99.90
22035;DHT22;11181;51.002;4.356;2022-08-01T01:05:48;22.40;99.90
22035;DHT22;11181;51.002;4.356;2022-08-01T01:08:24;22.40;99.90
22035;DHT22;11181;51.002;4.356;2022-08-01T01:10:56;22.40;99.90
22035;DHT22;11181;51.002;4.356;2022-08-01T01:13:33;22.50;99.90
22035;DHT22;11181;51.002;4.356;2022-08-01T01:16:08;22.50;99.90
22035;DHT22;11181;51.002;4.356;2022-08-01T01:18:41;22.50;99.90
22035;DHT22;11181;51.002;4.356;2022-08-01T01:21:23;22.50;99.90
22035;DHT22;11181;51.002;4.356;2022-08-01T01:23:59;22.40;99.90
22035;DHT22;11181;51.002;4.356;2022-08-01T01:26:38;22.40;99.90
22035;DHT22;11181;51.002;4.356;2022-08-01T01:29:13;22.20;99.90
22035;DHT22;11181;51.002;4.356;2022-08-01T01:31:44;22.10;99.90
22035;DHT22;11181;51.002;4.356;2022-08-01T01:34:13;22.10;99.90
22035;DHT22;11181;51.002;4.356;2022-08-01T01:36:43;22.20;99.90
22035;DHT22;11181;51.002;4.356;2022-08-01T01:39:11;22.10;99.90
22035;DHT22;11181;51.002;4.356;2022-08-01T01:41:40;22.10;99.90
22035;DHT22;11181;51.002;4.356;2022-08-01T01:44:10;22.00;99.90
22035;DHT22;11181;51.002;4.356;2022-08-01T01:46:39;22.00;99.90
22035;DHT22;11181;51.002;4.356;2022-08-01T01:49:08;21.80;99.90
22035;DHT22;11181;51.002;4.356;2022-08-01T01:51:37;21.70;99.90
22035;DHT22;11181;51.002;4.356;2022-08-01T01:54:05;21.70;99.90
22035;DHT22;11181;51.002;4.356;2022-08-01T01:56:33;21.60;99.90
22035;DHT22;11181;51.002;4.356;2022-08-01T01:59:18;21.70;99.90
22035;DHT22;11181;51.002;4.356;2022-08-01T02:01:47;21.80;99.90
22035;DHT22;11181;51.002;4.356;2022-08-01T02:04:15;21.80;99.90
22035;DHT22;11181;51.002;4.356;2022-08-01T02:06:45;22.00;99.90
22035;DHT22;11181;51.002;4.356;2022-08-01T02:09:14;22.00;99.90
22035;DHT22;11181;51.002;4.356;2022-08-01T02:11:43;22.10;99.90
22035;DHT22;11181;51.002;4.356;2022-08-01T02:14:11;22.10;99.90
22035;DHT22;11181;51.002;4.356;2022-08-01T02:16:44;22.10;99.90
22035;DHT22;11181;51.002;4.356;2022-08-01T02:19:11;22.10;99.90
22035;DHT22;11181;51.002;4.356;2022-08-01T02:21:40;22.20;99.90
22035;DHT22;11181;51.002;4.356;2022-08-01T02:24:13;22.20;99.90
22035;DHT22;11181;51.002;4.356;2022-08-01T02:26:47;22.20;99.90
22035;DHT22;11181;51.002;4.356;2022-08-01T02:29:21;22.10;99.90
22035;DHT22;11181;51.002;4.356;2022-08-01T02:31:54;22.20;99.90
22035;DHT22;11181;51.002;4.356;2022-08-01T02:34:21;22.10;99.90
22035;DHT22;11181;51.002;4.356;2022-08-01T02:36:49;22.10;99.90
22035;DHT22;11181;51.002;4.356;2022-08-01T02:39:19;22.00;99.90
22035;DHT22;11181;51.002;4.356;2022-08-01T02:41:56;22.10;99.90
22035;DHT22;11181;51.002;4.356;2022-08-01T02:44:28;22.10;99.90
22035;DHT22;11181;51.002;4.356;2022-08-01T02:47:00;22.10;99.90
22035;DHT22;11181;51.002;4.356;2022-08-01T02:49:30;22.10;99.90
22035;DHT22;11181;51.002;4.356;2022-08-01T02:51:59;22.00;99.90
22035;DHT22;11181;51.002;4.356;2022-08-01T02:54:28;22.10;99.90
22035;DHT22;11181;51.002;4.356;2022-08-01T02:56:56;22.10;99.90
22035;DHT22;11181;51.002;4.356;2022-08-01T02:59:24;22.10;99.90
22035;DHT22;11181;51.002;4.356;2022-08-01T03:01:54;22.10;99.90
22035;DHT22;11181;51.002;4.356;2022-08-01T03:04:24;22.10;99.90
22035;DHT22;11181;51.002;4.356;2022-08-01T03:06:54;22.10;99.90
22035;DHT22;11181;51.002;4.356;2022-08-01T03:09:23;22.10;99.90
22035;DHT22;11181;51.002;4.356;2022-08-01T03:11:51;22.20;99.90
22035;DHT22;11181;51.002;4.356;2022-08-01T03:14:20;22.30;99.90
22035;DHT22;11181;51.002;4.356;2022-08-01T03:16:51;22.30;99.90
22035;DHT22;11181;51.002;4.356;2022-08-01T03:19:20;22.20;99.90
22035;DHT22;11181;51.002;4.356;2022-08-01T03:21:51;22.10;99.90
22035;DHT22;11181;51.002;4.356;2022-08-01T03:24:18;21.70;99.90
22035;DHT22;11181;51.002;4.356;2022-08-01T03:26:46;21.40;99.90
22035;DHT22;11181;51.002;4.356;2022-08-01T03:29:16;21.00;99.90
22035;DHT22;11181;51.002;4.356;2022-08-01T03:31:44;20.90;99.90
22035;DHT22;11181;51.002;4.356;2022-08-01T03:34:12;21.20;99.90
22035;DHT22;11181;51.002;4.356;2022-08-01T03:36:45;21.20;99.90
22035;DHT22;11181;51.002;4.356;2022-08-01T03:39:16;21.40;99.90
22035;DHT22;11181;51.002;4.356;2022-08-01T03:41:48;21.50;99.90
22035;DHT22;11181;51.002;4.356;2022-08-01T03:44:22;21.60;99.90
22035;DHT22;11181;51.002;4.356;2022-08-01T03:46:54;21.70;99.90
22035;DHT22;11181;51.002;4.356;2022-08-01T03:49:27;21.90;99.90
22035;DHT22;11181;51.002;4.356;2022-08-01T03:51:57;22.00;99.90
22035;DHT22;11181;51.002;4.356;2022-08-01T03:54:30;22.10;99.90
22035;DHT22;11181;51.002;4.356;2022-08-01T03:57:00;22.20;99.90
22035;DHT22;11181;51.002;4.356;2022-08-01T03:59:27;22.20;99.90
22035;DHT22;11181;51.002;4.356;2022-08-01T04:01:55;22.30;99.90
22035;DHT22;11181;51.002;4.356;2022-08-01T04:04:22;22.30;99.90
22035;DHT22;11181;51.002;4.356;2022-08-01T04:06:49;22.40;99.90
22035;DHT22;11181;51.002;4.356;2022-08-01T04:09:19;22.30;99.90
22035;DHT22;11181;51.002;4.356;2022-08-01T04:11:48;22.30;99.90
22035;DHT22;11181;51.002;4.356;2022-08-01T04:14:15;22.30;99.90
22035;DHT22;11181;51.002;4.356;2022-08-01T04:16:42;22.40;99.90
22035;DHT22;11181;51.002;4.356;2022-08-01T04:19:09;22.40;99.90
22035;DHT22;11181;51.002;4.356;2022-08-01T04:21:37;22.40;99.90
22035;DHT22;11181;51.002;4.356;2022-08-01T04:24:09;22.40;99.90
22035;DHT22;11181;51.002;4.356;2022-08-01T04:26:37;22.40;99.90
22035;DHT22;11181;51.002;4.356;2022-08-01T04:29:08;22.50;99.90
22035;DHT22;11181;51.002;4.356;2022-08-01T04:31:36;22.50;99.90
22035;DHT22;11181;51.002;4.356;2022-08-01T04:34:06;22.50;99.90
22035;DHT22;11181;51.002;4.356;2022-08-01T04:36:35;22.50;99.90
22035;DHT22;11181;51.002;4.356;2022-08-01T04:39:04;22.50;99.90
22035;DHT22;11181;51.002;4.356;2022-08-01T04:41:31;22.40;99.90
22035;DHT22;11181;51.002;4.356;2022-08-01T04:43:59;22.50;99.90
22035;DHT22;11181;51.002;4.356;2022-08-01T04:46:29;22.50;99.90
22035;DHT22;11181;51.002;4.356;2022-08-01T04:48:58;22.50;99.90
22035;DHT22;11181;51.002;4.356;2022-08-01T04:51:26;22.50;99.90
22035;DHT22;11181;51.002;4.356;2022-08-01T04:53:53;22.60;99.90
22035;DHT22;11181;51.002;4.356;2022-08-01T04:56:20;22.60;99.90
22035;DHT22;11181;51.002;4.356;2022-08-01T04:58:47;22.60;99.90
22035;DHT22;11181;51.002;4.356;2022-08-01T05:01:35;22.70;99.90
22035;DHT22;11181;51.002;4.356;2022-08-01T05:04:02;22.70;99.90
22035;DHT22;11181;51.002;4.356;2022-08-01T05:06:29;22.70;99.90
22035;DHT22;11181;51.002;4.356;2022-08-01T05:08:56;22.60;99.90
22035;DHT22;11181;51.002;4.356;2022-08-01T05:11:23;22.60;99.90
22035;DHT22;11181;51.002;4.356;2022-08-01T05:13:50;22.60;99.90
22035;DHT22;11181;51.002;4.356;2022-08-01T05:16:18;22.60;99.90
22035;DHT22;11181;51.002;4.356;2022-08-01T05:18:46;22.60;99.90
22035;DHT22;11181;51.002;4.356;2022-08-01T05:21:13;22.60;99.90
22035;DHT22;11181;51.002;4.356;2022-08-01T05:23:39;22.60;99.90
22035;DHT22;11181;51.002;4.356;2022-08-01T05:26:06;22.70;99.90
22035;DHT22;11181;51.002;4.356;2022-08-01T05:28:33;22.70;99.90
22035;DHT22;11181;51.002;4.356;2022-08-01T05:31:00;22.60;99.90
22035;DHT22;11181;51.002;4.356;2022-08-01T05:33:27;22.60;99.90
22035;DHT22;11181;51.002;4.356;2022-08-01T05:35:55;22.60;99.90
22035;DHT22;11181;51.002;4.356;2022-08-01T05:38:22;22.50;99.90
22035;DHT22;11181;51.002;4.356;2022-08-01T05:40:49;22.50;99.90
22035;DHT22;11181;51.002;4.356;2022-08-01T05:43:16;22.60;99.90
22035;DHT22;11181;51.002;4.356;2022-08-01T05:45:43;22.60;99.90
22035;DHT22;11181;51.002;4.356;2022-08-01T05:48:11;22.60;99.90
22035;DHT22;11181;51.002;4.356;2022-08-01T05:50:38;22.60;99.90
22035;DHT22;11181;51.002;4.356;2022-08-01T05:53:06;22.60;99.90
22035;DHT22;11181;51.002;4.356;2022-08-01T05:55:34;22.60;99.90
22035;DHT22;11181;51.002;4.356;2022-08-01T05:58:02;22.70;99.90
22035;DHT22;11181;51.002;4.356;2022-08-01T06:00:28;22.60;99.90
22035;DHT22;11181;51.002;4.356;2022-08-01T06:02:55;22.60;99.90
22035;DHT22;11181;51.002;4.356;2022-08-01T06:05:22;22.50;99.90
22035;DHT22;11181;51.002;4.356;2022-08-01T06:07:49;22.50;99.90
22035;DHT22;11181;51.002;4.356;2022-08-01T06:10:18;22.60;99.90
22035;DHT22;11181;51.002;4.356;2022-08-01T06:12:45;22.60;99.90
22035;DHT22;11181;51.002;4.356;2022-08-01T06:15:12;22.40;99.90
22035;DHT22;11181;51.002;4.356;2022-08-01T06:17:39;22.50;99.90
22035;DHT22;11181;51.002;4.356;2022-08-01T06:20:07;22.60;99.90
22035;DHT22;11181;51.002;4.356;2022-08-01T06:22:35;22.70;99.90
22035;DHT22;11181;51.002;4.356;2022-08-01T06:25:02;22.70;99.90
22035;DHT22;11181;51.002;4.356;2022-08-01T06:27:30;22.80;99.90
22035;DHT22;11181;51.002;4.356;2022-08-01T06:29:57;22.90;99.90
22035;DHT22;11181;51.002;4.356;2022-08-01T06:32:25;22.90;99.90
22035;DHT22;11181;51.002;4.356;2022-08-01T06:34:52;22.70;99.90
22035;DHT22;11181;51.002;4.356;2022-08-01T06:37:19;22.90;99.90
22035;DHT22;11181;51.002;4.356;2022-08-01T06:39:46;23.20;99.90
22035;DHT22;11181;51.002;4.356;2022-08-01T06:42:14;23.40;99.90
22035;DHT22;11181;51.002;4.356;2022-08-01T06:44:43;23.40;99.90
22035;DHT22;11181;51.002;4.356;2022-08-01T06:47:10;23.50;99.90
22035;DHT22;11181;51.002;4.356;2022-08-01T06:49:37;23.70;99.90
22035;DHT22;11181;51.002;4.356;2022-08-01T06:52:04;23.40;99.90
22035;DHT22;11181;51.002;4.356;2022-08-01T06:54:31;23.10;99.90
22035;DHT22;11181;51.002;4.356;2022-08-01T06:56:58;22.90;99.90
22035;DHT22;11181;51.002;4.356;2022-08-01T06:59:24;23.10;99.90
22035;DHT22;11181;51.002;4.356;2022-08-01T07:01:53;22.90;99.90
22035;DHT22;11181;51.002;4.356;2022-08-01T07:04:20;22.70;99.90
22035;DHT22;11181;51.002;4.356;2022-08-01T07:06:47;22.80;99.90
22035;DHT22;11181;51.002;4.356;2022-08-01T07:09:13;22.90;99.90
22035;DHT22;11181;51.002;4.356;2022-08-01T07:11:40;22.80;99.90
22035;DHT22;11181;51.002;4.356;2022-08-01T07:14:07;23.00;99.90
22035;DHT22;11181;51.002;4.356;2022-08-01T07:16:35;23.20;99.90
22035;DHT22;11181;51.002;4.356;2022-08-01T07:19:03;23.20;99.90
22035;DHT22;11181;51.002;4.356;2022-08-01T07:21:30;23.30;99.90
22035;DHT22;11181;51.002;4.356;2022-08-01T07:23:57;23.20;99.90
22035;DHT22;11181;51.002;4.356;2022-08-01T07:26:24;23.10;99.90
22035;DHT22;11181;51.002;4.356;2022-08-01T07:28:52;23.10;99.90
22035;DHT22;11181;51.002;4.356;2022-08-01T07:31:19;23.00;99.90
22035;DHT22;11181;51.002;4.356;2022-08-01T07:33:46;22.90;99.90
22035;DHT22;11181;51.002;4.356;2022-08-01T07:36:14;23.00;99.90
22035;DHT22;11181;51.002;4.356;2022-08-01T07:38:41;22.80;99.90
22035;DHT22;11181;51.002;4.356;2022-08-01T07:41:08;22.70;99.90
22035;DHT22;11181;51.002;4.356;2022-08-01T07:43:35;22.90;99.90
22035;DHT22;11181;51.002;4.356;2022-08-01T07:46:03;23.10;99.90
22035;DHT22;11181;51.002;4.356;2022-08-01T07:48:30;23.50;99.90
22035;DHT22;11181;51.002;4.356;2022-08-01T07:50:57;23.80;99.90
22035;DHT22;11181;51.002;4.356;2022-08-01T07:53:26;24.20;99.90
22035;DHT22;11181;51.002;4.356;2022-08-01T07:55:53;24.30;99.90
22035;DHT22;11181;51.002;4.356;2022-08-01T07:58:20;24.50;99.90
22035;DHT22;11181;51.002;4.356;2022-08-01T08:00:47;24.80;99.90
22035;DHT22;11181;51.002;4.356;2022-08-01T08:03:14;25.10;99.90
22035;DHT22;11181;51.002;4.356;2022-08-01T08:05:41;25.40;99.90
22035;DHT22;11181;51.002;4.356;2022-08-01T08:08:08;25.80;99.90
22035;DHT22;11181;51.002;4.356;2022-08-01T08:10:38;25.90;99.90
22035;DHT22;11181;51.002;4.356;2022-08-01T08:13:05;25.90;99.90
22035;DHT22;11181;51.002;4.356;2022-08-01T08:15:32;25.90;99.90
22035;DHT22;11181;51.002;4.356;2022-08-01T08:17:59;25.90;99.90
22035;DHT22;11181;51.002;4.356;2022-08-01T08:20:26;26.10;99.90
22035;DHT22;11181;51.002;4.356;2022-08-01T08:22:54;26.20;99.90
22035;DHT22;11181;51.002;4.356;2022-08-01T08:25:23;26.40;99.90
22035;DHT22;11181;51.002;4.356;2022-08-01T08:27:52;26.00;99.90
22035;DHT22;11181;51.002;4.356;2022-08-01T08:30:19;25.90;99.90
22035;DHT22;11181;51.002;4.356;2022-08-01T08:32:46;25.90;99.90
22035;DHT22;11181;51.002;4.356;2022-08-01T08:35:13;26.00;99.90
22035;DHT22;11181;51.002;4.356;2022-08-01T08:37:40;25.90;99.90
22035;DHT22;11181;51.002;4.356;2022-08-01T08:40:09;26.00;99.90
22035;DHT22;11181;51.002;4.356;2022-08-01T08:42:39;26.10;99.90
22035;DHT22;11181;51.002;4.356;2022-08-01T08:45:09;26.20;99.90
22035;DHT22;11181;51.002;4.356;2022-08-01T08:47:36;26.50;99.90
22035;DHT22;11181;51.002;4.356;2022-08-01T08:50:05;26.80;99.90
22035;DHT22;11181;51.002;4.356;2022-08-01T08:52:35;27.00;99.90
22035;DHT22;11181;51.002;4.356;2022-08-01T08:55:05;27.10;99.90
22035;DHT22;11181;51.002;4.356;2022-08-01T08:57:33;27.00;99.90
22035;DHT22;11181;51.002;4.356;2022-08-01T09:00:00;27.20;99.90
22035;DHT22;11181;51.002;4.356;2022-08-01T09:02:29;27.30;99.90
22035;DHT22;11181;51.002;4.356;2022-08-01T09:04:57;27.70;99.90
22035;DHT22;11181;51.002;4.356;2022-08-01T09:07:24;27.80;99.90
22035;DHT22;11181;51.002;4.356;2022-08-01T09:09:51;28.20;99.90
22035;DHT22;11181;51.002;4.356;2022-08-01T09:12:18;28.40;99.90
22035;DHT22;11181;51.002;4.356;2022-08-01T09:14:47;28.20;99.90
22035;DHT22;11181;51.002;4.356;2022-08-01T09:17:15;27.80;99.90
22035;DHT22;11181;51.002;4.356;2022-08-01T09:19:45;27.50;99.90
22035;DHT22;11181;51.002;4.356;2022-08-01T09:22:15;27.20;99.90
22035;DHT22;11181;51.002;4.356;2022-08-01T09:25:00;27.10;99.90
22035;DHT22;11181;51.002;4.356;2022-08-01T09:27:28;26.80;99.90
22035;DHT22;11181;51.002;4.356;2022-08-01T09:29:55;27.00;99.90
22035;DHT22;11181;51.002;4.356;2022-08-01T09:32:33;27.40;99.90
22035;DHT22;11181;51.002;4.356;2022-08-01T09:35:22;27.70;99.90
22035;DHT22;11181;51.002;4.356;2022-08-01T09:37:49;27.50;99.90
22035;DHT22;11181;51.002;4.356;2022-08-01T09:40:16;27.60;99.90
22035;DHT22;11181;51.002;4.356;2022-08-01T09:42:43;27.70;99.90
22035;DHT22;11181;51.002;4.356;2022-08-01T09:45:31;27.80;99.90
22035;DHT22;11181;51.002;4.356;2022-08-01T09:48:05;27.60;99.90
22035;DHT22;11181;51.002;4.356;2022-08-01T09:50:40;27.70;99.90
22035;DHT22;11181;51.002;4.356;2022-08-01T09:53:08;27.70;99.90
22035;DHT22;11181;51.002;4.356;2022-08-01T09:55:35;27.60;99.90
22035;DHT22;11181;51.002;4.356;2022-08-01T09:58:03;27.90;99.90
22035;DHT22;11181;51.002;4.356;2022-08-01T10:00:31;28.00;99.90
22035;DHT22;11181;51.002;4.356;2022-08-01T10:02:58;28.10;99.90
22035;DHT22;11181;51.002;4.356;2022-08-01T10:05:32;27.40;99.90
22035;DHT22;11181;51.002;4.356;2022-08-01T10:08:02;27.30;99.90
22035;DHT22;11181;51.002;4.356;2022-08-01T10:10:30;27.30;99.90
22035;DHT22;11181;51.002;4.356;2022-08-01T10:12:58;27.70;99.90
22035;DHT22;11181;51.002;4.356;2022-08-01T10:15:26;28.20;99.90
22035;DHT22;11181;51.002;4.356;2022-08-01T10:17:55;28.70;99.90
22035;DHT22;11181;51.002;4.356;2022-08-01T10:20:25;29.10;99.90
22035;DHT22;11181;51.002;4.356;2022-08-01T10:22:54;29.50;99.90
22035;DHT22;11181;51.002;4.356;2022-08-01T10:25:23;29.60;99.90
22035;DHT22;11181;51.002;4.356;2022-08-01T10:27:52;29.70;99.90
22035;DHT22;11181;51.002;4.356;2022-08-01T10:30:20;29.60;99.90
22035;DHT22;11181;51.002;4.356;2022-08-01T10:32:48;29.60;99.90
22035;DHT22;11181;51.002;4.356;2022-08-01T10:35:18;29.50;99.90
22035;DHT22;11181;51.002;4.356;2022-08-01T10:37:46;29.40;99.90
22035;DHT22;11181;51.002;4.356;2022-08-01T10:40:16;29.30;99.90
22035;DHT22;11181;51.002;4.356;2022-08-01T10:42:45;29.20;99.90
22035;DHT22;11181;51.002;4.356;2022-08-01T10:45:14;29.20;99.90
22035;DHT22;11181;51.002;4.356;2022-08-01T10:47:48;29.30;99.90
22035;DHT22;11181;51.002;4.356;2022-08-01T10:50:20;29.60;99.90
22035;DHT22;11181;51.002;4.356;2022-08-01T10:53:13;29.60;99.90
22035;DHT22;11181;51.002;4.356;2022-08-01T10:55:52;29.60;99.90
22035;DHT22;11181;51.002;4.356;2022-08-01T10:58:26;29.30;99.90
22035;DHT22;11181;51.002;4.356;2022-08-01T11:01:16;29.40;99.90
22035;DHT22;11181;51.002;4.356;2022-08-01T11:03:45;29.70;99.90
22035;DHT22;11181;51.002;4.356;2022-08-01T11:06:24;29.90;99.90
22035;DHT22;11181;51.002;4.356;2022-08-01T11:08:53;29.60;99.90
22035;DHT22;11181;51.002;4.356;2022-08-01T11:11:21;29.40;99.90
22035;DHT22;11181;51.002;4.356;2022-08-01T11:14:02;29.60;99.90
22035;DHT22;11181;51.002;4.356;2022-08-01T11:16:36;29.90;99.90
22035;DHT22;11181;51.002;4.356;2022-08-01T11:19:03;30.10;99.90
22035;DHT22;11181;51.002;4.356;2022-08-01T11:22:00;30.30;99.90
22035;DHT22;11181;51.002;4.356;2022-08-01T11:24:55;30.50;99.90
22035;DHT22;11181;51.002;4.356;2022-08-01T11:27:25;30.60;99.90
22035;DHT22;11181;51.002;4.356;2022-08-01T11:30:23;30.20;99.90
22035;DHT22;11181;51.002;4.356;2022-08-01T11:32:52;30.30;99.90
22035;DHT22;11181;51.002;4.356;2022-08-01T11:35:20;30.40;99.90
22035;DHT22;11181;51.002;4.356;2022-08-01T11:37:52;30.50;99.90
22035;DHT22;11181;51.002;4.356;2022-08-01T11:40:22;30.40;99.90
22035;DHT22;11181;51.002;4.356;2022-08-01T11:45:49;30.50;99.90
22035;DHT22;11181;51.002;4.356;2022-08-01T11:48:20;31.00;99.50
22035;DHT22;11181;51.002;4.356;2022-08-01T11:50:48;31.10;99.20
22035;DHT22;11181;51.002;4.356;2022-08-01T11:53:16;30.70;98.90
22035;DHT22;11181;51.002;4.356;2022-08-01T11:55:46;30.70;99.60
22035;DHT22;11181;51.002;4.356;2022-08-01T11:58:15;30.90;98.50
22035;DHT22;11181;51.002;4.356;2022-08-01T12:00:51;31.20;97.50
22035;DHT22;11181;51.002;4.356;2022-08-01T12:03:24;31.10;96.90
22035;DHT22;11181;51.002;4.356;2022-08-01T12:05:53;31.20;94.70
22035;DHT22;11181;51.002;4.356;2022-08-01T12:08:27;31.30;95.10
22035;DHT22;11181;51.002;4.356;2022-08-01T12:10:55;30.80;95.30
22035;DHT22;11181;51.002;4.356;2022-08-01T12:13:22;30.70;95.40
22035;DHT22;11181;51.002;4.356;2022-08-01T12:15:49;30.90;97.10
22035;DHT22;11181;51.002;4.356;2022-08-01T12:18:18;31.40;95.10
22035;DHT22;11181;51.002;4.356;2022-08-01T12:20:46;31.50;94.10
22035;DHT22;11181;51.002;4.356;2022-08-01T12:23:14;31.30;94.50
22035;DHT22;11181;51.002;4.356;2022-08-01T12:25:41;31.40;94.90
22035;DHT22;11181;51.002;4.356;2022-08-01T12:28:10;31.00;95.80
22035;DHT22;11181;51.002;4.356;2022-08-01T12:30:38;30.30;95.90
22035;DHT22;11181;51.002;4.356;2022-08-01T12:33:07;30.30;96.20
22035;DHT22;11181;51.002;4.356;2022-08-01T12:35:37;30.00;95.20
22035;DHT22;11181;51.002;4.356;2022-08-01T12:38:06;30.10;95.50
22035;DHT22;11181;51.002;4.356;2022-08-01T12:40:34;30.50;94.60
22035;DHT22;11181;51.002;4.356;2022-08-01T12:43:04;30.90;94.40
22035;DHT22;11181;51.002;4.356;2022-08-01T12:45:35;31.00;95.40
22035;DHT22;11181;51.002;4.356;2022-08-01T12:48:08;30.70;95.00
22035;DHT22;11181;51.002;4.356;2022-08-01T12:50:39;30.30;95.60
22035;DHT22;11181;51.002;4.356;2022-08-01T12:53:08;30.00;96.20
22035;DHT22;11181;51.002;4.356;2022-08-01T12:55:44;30.20;96.10
22035;DHT22;11181;51.002;4.356;2022-08-01T12:58:14;30.60;95.30
22035;DHT22;11181;51.002;4.356;2022-08-01T13:00:43;30.80;92.50
22035;DHT22;11181;51.002;4.356;2022-08-01T13:03:12;30.70;92.90
22035;DHT22;11181;51.002;4.356;2022-08-01T13:05:46;31.10;93.30
22035;DHT22;11181;51.002;4.356;2022-08-01T13:08:15;31.50;94.30
22035;DHT22;11181;51.002;4.356;2022-08-01T13:10:43;31.90;93.10
22035;DHT22;11181;51.002;4.356;2022-08-01T13:13:11;31.70;93.00
22035;DHT22;11181;51.002;4.356;2022-08-01T13:15:40;31.50;93.20
22035;DHT22;11181;51.002;4.356;2022-08-01T13:18:26;31.60;91.60
22035;DHT22;11181;51.002;4.356;2022-08-01T13:21:13;31.60;91.90
22035;DHT22;11181;51.002;4.356;2022-08-01T13:23:42;30.90;91.90
22035;DHT22;11181;51.002;4.356;2022-08-01T13:26:38;30.80;91.40
22035;DHT22;11181;51.002;4.356;2022-08-01T13:29:06;30.90;90.60
22035;DHT22;11181;51.002;4.356;2022-08-01T13:31:34;31.00;91.00
22035;DHT22;11181;51.002;4.356;2022-08-01T13:34:01;31.10;91.50
22035;DHT22;11181;51.002;4.356;2022-08-01T13:36:30;31.30;90.50
22035;DHT22;11181;51.002;4.356;2022-08-01T13:38:57;31.80;90.50
22035;DHT22;11181;51.002;4.356;2022-08-01T13:41:42;31.30;90.70
22035;DHT22;11181;51.002;4.356;2022-08-01T13:44:10;31.10;91.00
22035;DHT22;11181;51.002;4.356;2022-08-01T13:46:38;31.00;91.30
22035;DHT22;11181;51.002;4.356;2022-08-01T13:49:06;31.40;90.50
22035;DHT22;11181;51.002;4.356;2022-08-01T13:51:35;31.70;89.40
22035;DHT22;11181;51.002;4.356;2022-08-01T13:54:03;32.40;88.00
22035;DHT22;11181;51.002;4.356;2022-08-01T13:56:30;32.20;86.50
22035;DHT22;11181;51.002;4.356;2022-08-01T13:58:58;31.90;84.90
22035;DHT22;11181;51.002;4.356;2022-08-01T14:01:25;31.80;83.90
22035;DHT22;11181;51.002;4.356;2022-08-01T14:03:52;32.00;83.00
22035;DHT22;11181;51.002;4.356;2022-08-01T14:06:19;31.90;84.10
22035;DHT22;11181;51.002;4.356;2022-08-01T14:08:49;31.90;83.90
22035;DHT22;11181;51.002;4.356;2022-08-01T14:11:16;31.60;84.80
22035;DHT22;11181;51.002;4.356;2022-08-01T14:13:43;31.50;85.50
22035;DHT22;11181;51.002;4.356;2022-08-01T14:16:11;31.30;85.70
22035;DHT22;11181;51.002;4.356;2022-08-01T14:18:38;31.40;85.80
22035;DHT22;11181;51.002;4.356;2022-08-01T14:21:05;31.50;84.00
22035;DHT22;11181;51.002;4.356;2022-08-01T14:23:32;31.40;83.00
22035;DHT22;11181;51.002;4.356;2022-08-01T14:26:00;31.00;83.30
22035;DHT22;11181;51.002;4.356;2022-08-01T14:28:27;30.70;81.20
22035;DHT22;11181;51.002;4.356;2022-08-01T14:30:55;30.70;82.80
22035;DHT22;11181;51.002;4.356;2022-08-01T14:33:22;30.50;82.50
22035;DHT22;11181;51.002;4.356;2022-08-01T14:35:50;30.60;82.20
22035;DHT22;11181;51.002;4.356;2022-08-01T14:38:17;31.00;81.20
22035;DHT22;11181;51.002;4.356;2022-08-01T14:40:44;31.50;80.70
22035;DHT22;11181;51.002;4.356;2022-08-01T14:43:13;31.80;81.50
22035;DHT22;11181;51.002;4.356;2022-08-01T14:45:40;32.20;81.10
22035;DHT22;11181;51.002;4.356;2022-08-01T14:48:07;32.60;80.30
22035;DHT22;11181;51.002;4.356;2022-08-01T14:50:34;32.70;78.90
22035;DHT22;11181;51.002;4.356;2022-08-01T14:53:02;32.20;79.80
22035;DHT22;11181;51.002;4.356;2022-08-01T14:55:29;32.10;80.90
22035;DHT22;11181;51.002;4.356;2022-08-01T14:57:56;32.10;80.30
22035;DHT22;11181;51.002;4.356;2022-08-01T15:00:24;31.90;79.50
22035;DHT22;11181;51.002;4.356;2022-08-01T15:02:51;32.10;80.10
22035;DHT22;11181;51.002;4.356;2022-08-01T15:05:18;32.30;80.50
22035;DHT22;11181;51.002;4.356;2022-08-01T15:07:45;32.00;80.30
22035;DHT22;11181;51.002;4.356;2022-08-01T15:10:12;31.60;81.60
22035;DHT22;11181;51.002;4.356;2022-08-01T15:12:41;31.30;82.20
22035;DHT22;11181;51.002;4.356;2022-08-01T15:15:09;31.00;81.40
22035;DHT22;11181;51.002;4.356;2022-08-01T15:17:37;30.70;81.70
22035;DHT22;11181;51.002;4.356;2022-08-01T15:20:06;30.70;82.30
22035;DHT22;11181;51.002;4.356;2022-08-01T15:22:33;30.40;82.20
22035;DHT22;11181;51.002;4.356;2022-08-01T15:25:01;30.60;83.20
22035;DHT22;11181;51.002;4.356;2022-08-01T15:27:28;31.10;81.10
22035;DHT22;11181;51.002;4.356;2022-08-01T15:29:56;31.20;79.30
22035;DHT22;11181;51.002;4.356;2022-08-01T15:32:23;30.60;80.50
22035;DHT22;11181;51.002;4.356;2022-08-01T15:34:52;30.40;81.10
22035;DHT22;11181;51.002;4.356;2022-08-01T15:37:19;30.50;81.50
22035;DHT22;11181;51.002;4.356;2022-08-01T15:39:46;30.40;81.20
22035;DHT22;11181;51.002;4.356;2022-08-01T15:42:15;30.80;80.10
22035;DHT22;11181;51.002;4.356;2022-08-01T15:44:42;30.90;78.10
22035;DHT22;11181;51.002;4.356;2022-08-01T15:47:10;30.90;78.60